sensor_id;sensor_type;location;lat;lon;timestamp;P1;durP1;ratioP1;P2;durP2;ratioP2
9729;SDS011;4904;49.152;11.004;2024-01-15T00:01:06;27.83;;;11.07;;
9729;SDS011;4904;49.152;11.004;2024-01-15T00:03:33;26.67;;;12.93;;
9729;SDS011;4904;49.152;11.004;2024-01-15T00:06:00;27.03;;;12.80;;
9729;SDS011;4904;49.152;11.004;2024-01-15T00:08:27;22.63;;;9.27;;
9729;SDS011;4904;49.152;11.004;2024-01-15T00:10:54;25.47;;;9.47;;
9729;SDS011;4904;49.152;11.004;2024-01-15T00:13:20;23.97;;;11.20;;
9729;SDS011;4904;49.152;11.004;2024-01-15T00:15:47;31.87;;;14.43;;
9729;SDS011;4904;49.152;11.004;2024-01-15T00:18:15;27.67;;;12.17;;
9729;SDS011;4904;49.152;11.004;2024-01-15T00:20:42;32.13;;;14.30;;
9729;SDS011;4904;49.152;11.004;2024-01-15T00:23:09;32.50;;;15.47;;
9729;SDS011;4904;49.152;11.004;2024-01-15T00:25:36;31.07;;;12.97;;
9729;SDS011;4904;49.152;11.004;2024-01-15T00:28:03;36.33;;;15.77;;
9729;SDS011;4904;49.152;11.004;2024-01-15T00:30:31;22.57;;;9.17;;
9729;SDS011;4904;49.152;11.004;2024-01-15T00:32:57;24.40;;;9.20;;
9729;SDS011;4904;49.152;11.004;2024-01-15T00:35:26;32.50;;;13.67;;
9729;SDS011;4904;49.152;11.004;2024-01-15T00:37:52;33.93;;;15.13;;
9729;SDS011;4904;49.152;11.004;2024-01-15T00:40:19;24.40;;;10.80;;
9729;SDS011;4904;49.152;11.004;2024-01-15T00:42:46;37.93;;;15.37;;
9729;SDS011;4904;49.152;11.004;2024-01-15T00:45:13;23.60;;;11.17;;
9729;SDS011;4904;49.152;11.004;2024-01-15T00:47:40;29.43;;;12.10;;
9729;SDS011;4904;49.152;11.004;2024-01-15T00:50:07;22.07;;;10.43;;
9729;SDS011;4904;49.152;11.004;2024-01-15T00:52:36;30.60;;;13.43;;
9729;SDS011;4904;49.152;11.004;2024-01-15T00:55:03;25.93;;;11.80;;
9729;SDS011;4904;49.152;11.004;2024-01-15T00:57:30;32.57;;;15.13;;
9729;SDS011;4904;49.152;11.004;2024-01-15T00:59:58;25.17;;;10.73;;
9729;SDS011;4904;49.152;11.004;2024-01-15T01:02:25;33.77;;;13.77;;
9729;SDS011;4904;49.152;11.004;2024-01-15T01:04:52;26.03;;;12.10;;
9729;SDS011;4904;49.152;11.004;2024-01-15T01:07:19;29.47;;;14.17;;
9729;SDS011;4904;49.152;11.004;2024-01-15T01:09:47;21.07;;;9.33;;
9729;SDS011;4904;49.152;11.004;2024-01-15T01:12:16;27.83;;;13.07;;
9729;SDS011;4904;49.152;11.004;2024-01-15T01:14:44;23.40;;;12.47;;
9729;SDS011;4904;49.152;11.004;2024-01-15T01:17:11;27.83;;;12.00;;
9729;SDS011;4904;49.152;11.004;2024-01-15T01:19:38;24.40;;;11.97;;
9729;SDS011;4904;49.152;11.004;2024-01-15T01:22:05;27.43;;;13.57;;
9729;SDS011;4904;49.152;11.004;2024-01-15T01:24:33;29.20;;;12.70;;
9729;SDS011;4904;49.152;11.004;2024-01-15T01:27:01;25.20;;;13.17;;
9729;SDS011;4904;49.152;11.004;2024-01-15T01:29:28;32.67;;;14.30;;
9729;SDS011;4904;49.152;11.004;2024-01-15T01:31:55;26.80;;;12.93;;
9729;SDS011;4904;49.152;11.004;2024-01-15T01:34:22;19.30;;;9.57;;
9729;SDS011;4904;49.152;11.004;2024-01-15T01:36:49;27.73;;;11.60;;
9729;SDS011;4904;49.152;11.004;2024-01-15T01:39:15;31.10;;;12.57;;
9729;SDS011;4904;49.152;11.004;2024-01-15T01:41:43;22.13;;;9.40;;
9729;SDS011;4904;49.152;11.004;2024-01-15T01:44:11;28.33;;;14.07;;
9729;SDS011;4904;49.152;11.004;2024-01-15T01:46:38;22.63;;;11.40;;
9729;SDS011;4904;49.152;11.004;2024-01-15T01:49:05;26.63;;;12.33;;
9729;SDS011;4904;49.152;11.004;2024-01-15T01:51:33;15.00;;;7.10;;
9729;SDS011;4904;49.152;11.004;2024-01-15T01:54:02;28.43;;;12.10;;
9729;SDS011;4904;49.152;11.004;2024-01-15T01:56:30;16.97;;;8.47;;
9729;SDS011;4904;49.152;11.004;2024-01-15T01:58:57;20.23;;;8.63;;
9729;SDS011;4904;49.152;11.004;2024-01-15T02:01:26;21.63;;;10.23;;
9729;SDS011;4904;49.152;11.004;2024-01-15T02:03:53;20.63;;;9.13;;
9729;SDS011;4904;49.152;11.004;2024-01-15T02:06:21;17.30;;;9.70;;
9729;SDS011;4904;49.152;11.004;2024-01-15T02:08:49;21.43;;;8.50;;
9729;SDS011;4904;49.152;11.004;2024-01-15T02:11:16;23.80;;;12.43;;
9729;SDS011;4904;49.152;11.004;2024-01-15T02:13:43;19.83;;;9.67;;
9729;SDS011;4904;49.152;11.004;2024-01-15T02:16:10;21.53;;;10.30;;
9729;SDS011;4904;49.152;11.004;2024-01-15T02:18:42;21.50;;;10.93;;
9729;SDS011;4904;49.152;11.004;2024-01-15T02:21:09;19.10;;;10.63;;
9729;SDS011;4904;49.152;11.004;2024-01-15T02:23:38;20.43;;;10.00;;
9729;SDS011;4904;49.152;11.004;2024-01-15T02:26:05;16.37;;;7.97;;
9729;SDS011;4904;49.152;11.004;2024-01-15T02:28:34;19.30;;;7.70;;
9729;SDS011;4904;49.152;11.004;2024-01-15T02:31:01;17.87;;;8.40;;
9729;SDS011;4904;49.152;11.004;2024-01-15T02:33:28;19.27;;;7.53;;
9729;SDS011;4904;49.152;11.004;2024-01-15T02:35:55;18.90;;;9.73;;
9729;SDS011;4904;49.152;11.004;2024-01-15T02:38:21;23.20;;;11.40;;
9729;SDS011;4904;49.152;11.004;2024-01-15T02:40:49;17.17;;;8.57;;
9729;SDS011;4904;49.152;11.004;2024-01-15T02:43:17;19.00;;;9.20;;
9729;SDS011;4904;49.152;11.004;2024-01-15T02:45:44;17.57;;;8.40;;
9729;SDS011;4904;49.152;11.004;2024-01-15T02:48:12;26.67;;;9.87;;
9729;SDS011;4904;49.152;11.004;2024-01-15T02:50:39;15.60;;;8.13;;
9729;SDS011;4904;49.152;11.004;2024-01-15T02:53:05;19.67;;;8.53;;
9729;SDS011;4904;49.152;11.004;2024-01-15T02:55:32;16.40;;;7.60;;
9729;SDS011;4904;49.152;11.004;2024-01-15T02:58:01;23.70;;;9.00;;
9729;SDS011;4904;49.152;11.004;2024-01-15T03:00:28;18.20;;;9.87;;
9729;SDS011;4904;49.152;11.004;2024-01-15T03:02:55;15.93;;;7.73;;
9729;SDS011;4904;49.152;11.004;2024-01-15T03:05:22;17.63;;;8.30;;
9729;SDS011;4904;49.152;11.004;2024-01-15T03:07:49;14.80;;;7.37;;
9729;SDS011;4904;49.152;11.004;2024-01-15T03:10:16;18.80;;;9.80;;
9729;SDS011;4904;49.152;11.004;2024-01-15T03:12:42;14.93;;;8.43;;
9729;SDS011;4904;49.152;11.004;2024-01-15T03:15:11;13.07;;;7.30;;
9729;SDS011;4904;49.152;11.004;2024-01-15T03:17:38;16.83;;;8.60;;
9729;SDS011;4904;49.152;11.004;2024-01-15T03:20:05;22.60;;;10.67;;
9729;SDS011;4904;49.152;11.004;2024-01-15T03:22:32;20.60;;;9.77;;
9729;SDS011;4904;49.152;11.004;2024-01-15T03:24:59;21.73;;;10.70;;
9729;SDS011;4904;49.152;11.004;2024-01-15T03:27:26;20.47;;;9.67;;
9729;SDS011;4904;49.152;11.004;2024-01-15T03:29:53;24.53;;;10.43;;
9729;SDS011;4904;49.152;11.004;2024-01-15T03:32:21;19.37;;;8.80;;
9729;SDS011;4904;49.152;11.004;2024-01-15T03:34:48;18.87;;;9.80;;
9729;SDS011;4904;49.152;11.004;2024-01-15T03:37:17;24.53;;;11.23;;
9729;SDS011;4904;49.152;11.004;2024-01-15T03:39:44;20.50;;;10.83;;
9729;SDS011;4904;49.152;11.004;2024-01-15T03:42:11;15.87;;;7.23;;
9729;SDS011;4904;49.152;11.004;2024-01-15T03:44:39;15.07;;;7.27;;
9729;SDS011;4904;49.152;11.004;2024-01-15T03:47:06;10.57;;;6.87;;
9729;SDS011;4904;49.152;11.004;2024-01-15T03:49:35;17.73;;;8.57;;
9729;SDS011;4904;49.152;11.004;2024-01-15T03:52:02;15.10;;;8.60;;
9729;SDS011;4904;49.152;11.004;2024-01-15T03:54:29;23.13;;;10.57;;
9729;SDS011;4904;49.152;11.004;2024-01-15T03:56:56;22.50;;;11.57;;
9729;SDS011;4904;49.152;11.004;2024-01-15T03:59:23;18.40;;;9.40;;
9729;SDS011;4904;49.152;11.004;2024-01-15T04:01:50;11.53;;;5.23;;
9729;SDS011;4904;49.152;11.004;2024-01-15T04:04:17;22.77;;;11.03;;
9729;SDS011;4904;49.152;11.004;2024-01-15T04:06:45;13.90;;;7.30;;
9729;SDS011;4904;49.152;11.004;2024-01-15T04:09:12;18.13;;;8.13;;
9729;SDS011;4904;49.152;11.004;2024-01-15T04:11:40;17.90;;;8.60;;
9729;SDS011;4904;49.152;11.004;2024-01-15T04:14:07;17.30;;;8.27;;
9729;SDS011;4904;49.152;11.004;2024-01-15T04:16:34;17.63;;;8.60;;
9729;SDS011;4904;49.152;11.004;2024-01-15T04:19:01;18.90;;;8.47;;
9729;SDS011;4904;49.152;11.004;2024-01-15T04:21:28;13.73;;;7.17;;
9729;SDS011;4904;49.152;11.004;2024-01-15T04:23:56;16.50;;;8.43;;
9729;SDS011;4904;49.152;11.004;2024-01-15T04:26:23;15.10;;;8.10;;
9729;SDS011;4904;49.152;11.004;2024-01-15T04:28:50;16.53;;;8.50;;
9729;SDS011;4904;49.152;11.004;2024-01-15T04:31:23;17.70;;;9.23;;
9729;SDS011;4904;49.152;11.004;2024-01-15T04:33:50;16.03;;;8.03;;
9729;SDS011;4904;49.152;11.004;2024-01-15T04:36:17;18.50;;;9.33;;
9729;SDS011;4904;49.152;11.004;2024-01-15T04:38:44;12.57;;;6.60;;
9729;SDS011;4904;49.152;11.004;2024-01-15T04:41:12;20.10;;;8.90;;
9729;SDS011;4904;49.152;11.004;2024-01-15T04:43:39;12.67;;;6.90;;
9729;SDS011;4904;49.152;11.004;2024-01-15T04:46:06;14.03;;;6.73;;
9729;SDS011;4904;49.152;11.004;2024-01-15T04:48:34;15.27;;;8.13;;
9729;SDS011;4904;49.152;11.004;2024-01-15T04:51:03;18.50;;;8.67;;
9729;SDS011;4904;49.152;11.004;2024-01-15T04:53:31;12.00;;;6.93;;
9729;SDS011;4904;49.152;11.004;2024-01-15T04:55:57;14.67;;;7.17;;
9729;SDS011;4904;49.152;11.004;2024-01-15T04:58:25;11.17;;;6.73;;
9729;SDS011;4904;49.152;11.004;2024-01-15T05:00:52;13.07;;;7.03;;
9729;SDS011;4904;49.152;11.004;2024-01-15T05:03:20;16.63;;;8.33;;
9729;SDS011;4904;49.152;11.004;2024-01-15T05:05:47;12.03;;;7.10;;
9729;SDS011;4904;49.152;11.004;2024-01-15T05:08:14;14.63;;;7.87;;
9729;SDS011;4904;49.152;11.004;2024-01-15T05:10:40;16.10;;;7.73;;
9729;SDS011;4904;49.152;11.004;2024-01-15T05:13:07;14.70;;;8.40;;
9729;SDS011;4904;49.152;11.004;2024-01-15T05:15:36;20.10;;;8.87;;
9729;SDS011;4904;49.152;11.004;2024-01-15T05:18:03;14.33;;;7.60;;
9729;SDS011;4904;49.152;11.004;2024-01-15T05:20:31;13.10;;;7.47;;
9729;SDS011;4904;49.152;11.004;2024-01-15T05:22:58;13.73;;;8.40;;
9729;SDS011;4904;49.152;11.004;2024-01-15T05:25:24;13.63;;;7.13;;
9729;SDS011;4904;49.152;11.004;2024-01-15T05:27:51;11.10;;;7.27;;
9729;SDS011;4904;49.152;11.004;2024-01-15T05:30:18;13.43;;;7.50;;
9729;SDS011;4904;49.152;11.004;2024-01-15T05:32:46;14.93;;;7.40;;
9729;SDS011;4904;49.152;11.004;2024-01-15T05:35:13;9.63;;;5.70;;
9729;SDS011;4904;49.152;11.004;2024-01-15T05:37:42;15.00;;;7.10;;
9729;SDS011;4904;49.152;11.004;2024-01-15T05:40:10;13.33;;;7.30;;
9729;SDS011;4904;49.152;11.004;2024-01-15T05:42:38;12.47;;;6.33;;
9729;SDS011;4904;49.152;11.004;2024-01-15T05:45:05;9.87;;;6.40;;
9729;SDS011;4904;49.152;11.004;2024-01-15T05:47:32;12.43;;;6.97;;
9729;SDS011;4904;49.152;11.004;2024-01-15T05:50:01;10.33;;;5.60;;
9729;SDS011;4904;49.152;11.004;2024-01-15T05:52:28;9.10;;;5.70;;
9729;SDS011;4904;49.152;11.004;2024-01-15T05:54:55;6.17;;;4.23;;
9729;SDS011;4904;49.152;11.004;2024-01-15T05:57:22;13.60;;;6.73;;
9729;SDS011;4904;49.152;11.004;2024-01-15T05:59:49;9.80;;;5.20;;
9729;SDS011;4904;49.152;11.004;2024-01-15T06:02:16;11.17;;;6.37;;
9729;SDS011;4904;49.152;11.004;2024-01-15T06:04:43;9.57;;;6.17;;
9729;SDS011;4904;49.152;11.004;2024-01-15T06:07:11;11.03;;;5.73;;
9729;SDS011;4904;49.152;11.004;2024-01-15T06:09:38;11.47;;;6.00;;
9729;SDS011;4904;49.152;11.004;2024-01-15T06:12:07;11.37;;;6.30;;
9729;SDS011;4904;49.152;11.004;2024-01-15T06:14:34;9.10;;;5.47;;
9729;SDS011;4904;49.152;11.004;2024-01-15T06:17:01;10.97;;;5.70;;
9729;SDS011;4904;49.152;11.004;2024-01-15T06:19:28;12.03;;;5.27;;
9729;SDS011;4904;49.152;11.004;2024-01-15T06:21:55;10.40;;;5.83;;
9729;SDS011;4904;49.152;11.004;2024-01-15T06:24:23;7.67;;;4.27;;
9729;SDS011;4904;49.152;11.004;2024-01-15T06:26:50;11.57;;;6.17;;
9729;SDS011;4904;49.152;11.004;2024-01-15T06:29:17;11.00;;;6.23;;
9729;SDS011;4904;49.152;11.004;2024-01-15T06:31:44;13.23;;;6.87;;
9729;SDS011;4904;49.152;11.004;2024-01-15T06:34:11;9.23;;;5.60;;
9729;SDS011;4904;49.152;11.004;2024-01-15T06:36:38;10.53;;;5.73;;
9729;SDS011;4904;49.152;11.004;2024-01-15T06:39:05;13.23;;;5.93;;
9729;SDS011;4904;49.152;11.004;2024-01-15T06:41:33;9.93;;;6.00;;
9729;SDS011;4904;49.152;11.004;2024-01-15T06:44:00;10.57;;;6.17;;
9729;SDS011;4904;49.152;11.004;2024-01-15T06:46:27;10.57;;;5.67;;
9729;SDS011;4904;49.152;11.004;2024-01-15T06:48:54;10.33;;;5.80;;
9729;SDS011;4904;49.152;11.004;2024-01-15T06:51:21;10.30;;;6.20;;
9729;SDS011;4904;49.152;11.004;2024-01-15T06:53:48;10.40;;;6.17;;
9729;SDS011;4904;49.152;11.004;2024-01-15T06:56:15;9.40;;;6.07;;
9729;SDS011;4904;49.152;11.004;2024-01-15T06:58:43;15.87;;;7.60;;
9729;SDS011;4904;49.152;11.004;2024-01-15T07:01:10;11.00;;;6.37;;
9729;SDS011;4904;49.152;11.004;2024-01-15T07:03:37;12.90;;;7.17;;
9729;SDS011;4904;49.152;11.004;2024-01-15T07:06:04;12.83;;;7.30;;
9729;SDS011;4904;49.152;11.004;2024-01-15T07:08:31;10.07;;;6.20;;
9729;SDS011;4904;49.152;11.004;2024-01-15T07:10:58;9.77;;;5.80;;
9729;SDS011;4904;49.152;11.004;2024-01-15T07:13:25;10.90;;;5.60;;
9729;SDS011;4904;49.152;11.004;2024-01-15T07:15:53;10.80;;;5.67;;
9729;SDS011;4904;49.152;11.004;2024-01-15T07:18:20;12.00;;;6.27;;
9729;SDS011;4904;49.152;11.004;2024-01-15T07:20:47;10.03;;;5.70;;
9729;SDS011;4904;49.152;11.004;2024-01-15T07:23:14;12.10;;;6.13;;
9729;SDS011;4904;49.152;11.004;2024-01-15T07:25:42;8.80;;;5.17;;
9729;SDS011;4904;49.152;11.004;2024-01-15T07:28:09;10.57;;;5.70;;
9729;SDS011;4904;49.152;11.004;2024-01-15T07:30:36;11.73;;;6.60;;
9729;SDS011;4904;49.152;11.004;2024-01-15T07:33:05;13.93;;;5.77;;
9729;SDS011;4904;49.152;11.004;2024-01-15T07:35:32;9.93;;;5.30;;
9729;SDS011;4904;49.152;11.004;2024-01-15T07:37:59;8.20;;;5.20;;
9729;SDS011;4904;49.152;11.004;2024-01-15T07:40:26;12.27;;;5.73;;
9729;SDS011;4904;49.152;11.004;2024-01-15T07:42:52;7.10;;;4.93;;
9729;SDS011;4904;49.152;11.004;2024-01-15T07:45:19;6.60;;;4.03;;
9729;SDS011;4904;49.152;11.004;2024-01-15T07:47:46;11.07;;;5.93;;
9729;SDS011;4904;49.152;11.004;2024-01-15T07:50:15;10.80;;;6.07;;
9729;SDS011;4904;49.152;11.004;2024-01-15T07:52:42;8.53;;;4.60;;
9729;SDS011;4904;49.152;11.004;2024-01-15T07:55:09;10.53;;;5.77;;
9729;SDS011;4904;49.152;11.004;2024-01-15T07:57:36;8.33;;;4.77;;
9729;SDS011;4904;49.152;11.004;2024-01-15T08:00:04;10.80;;;5.47;;
9729;SDS011;4904;49.152;11.004;2024-01-15T08:02:31;9.43;;;5.10;;
9729;SDS011;4904;49.152;11.004;2024-01-15T08:04:58;8.50;;;5.40;;
9729;SDS011;4904;49.152;11.004;2024-01-15T08:07:27;9.47;;;5.23;;
9729;SDS011;4904;49.152;11.004;2024-01-15T08:09:57;9.73;;;6.57;;
9729;SDS011;4904;49.152;11.004;2024-01-15T08:12:24;10.40;;;5.33;;
9729;SDS011;4904;49.152;11.004;2024-01-15T08:14:51;13.53;;;6.03;;
9729;SDS011;4904;49.152;11.004;2024-01-15T08:17:17;9.03;;;5.13;;
9729;SDS011;4904;49.152;11.004;2024-01-15T08:19:44;8.17;;;5.37;;
9729;SDS011;4904;49.152;11.004;2024-01-15T08:22:11;7.53;;;4.67;;
9729;SDS011;4904;49.152;11.004;2024-01-15T08:24:39;11.03;;;6.37;;
9729;SDS011;4904;49.152;11.004;2024-01-15T08:27:07;10.23;;;6.33;;
9729;SDS011;4904;49.152;11.004;2024-01-15T08:29:33;10.30;;;6.17;;
9729;SDS011;4904;49.152;11.004;2024-01-15T08:32:00;11.67;;;6.97;;
9729;SDS011;4904;49.152;11.004;2024-01-15T08:34:27;9.07;;;5.93;;
9729;SDS011;4904;49.152;11.004;2024-01-15T08:36:54;8.83;;;5.10;;
9729;SDS011;4904;49.152;11.004;2024-01-15T08:39:21;11.27;;;6.13;;
9729;SDS011;4904;49.152;11.004;2024-01-15T08:41:49;10.43;;;5.83;;
9729;SDS011;4904;49.152;11.004;2024-01-15T08:44:16;10.40;;;5.80;;
9729;SDS011;4904;49.152;11.004;2024-01-15T08:46:43;8.17;;;4.10;;
9729;SDS011;4904;49.152;11.004;2024-01-15T08:49:10;11.90;;;6.00;;
9729;SDS011;4904;49.152;11.004;2024-01-15T08:51:37;10.30;;;5.77;;
9729;SDS011;4904;49.152;11.004;2024-01-15T08:54:04;11.07;;;6.57;;
9729;SDS011;4904;49.152;11.004;2024-01-15T08:56:33;7.97;;;5.17;;
9729;SDS011;4904;49.152;11.004;2024-01-15T08:59:01;9.30;;;4.47;;
9729;SDS011;4904;49.152;11.004;2024-01-15T09:01:28;11.07;;;5.70;;
9729;SDS011;4904;49.152;11.004;2024-01-15T09:03:56;9.73;;;5.83;;
9729;SDS011;4904;49.152;11.004;2024-01-15T09:06:23;11.23;;;6.00;;
9729;SDS011;4904;49.152;11.004;2024-01-15T09:08:49;7.90;;;5.53;;
9729;SDS011;4904;49.152;11.004;2024-01-15T09:11:16;10.53;;;6.30;;
9729;SDS011;4904;49.152;11.004;2024-01-15T09:13:43;11.90;;;5.77;;
9729;SDS011;4904;49.152;11.004;2024-01-15T09:16:12;8.87;;;4.97;;
9729;SDS011;4904;49.152;11.004;2024-01-15T09:18:38;9.97;;;5.83;;
9729;SDS011;4904;49.152;11.004;2024-01-15T09:21:05;8.90;;;5.53;;
9729;SDS011;4904;49.152;11.004;2024-01-15T09:23:32;8.57;;;4.93;;
9729;SDS011;4904;49.152;11.004;2024-01-15T09:25:59;7.40;;;4.13;;
9729;SDS011;4904;49.152;11.004;2024-01-15T09:28:26;11.67;;;6.03;;
9729;SDS011;4904;49.152;11.004;2024-01-15T09:30:53;10.50;;;5.63;;
9729;SDS011;4904;49.152;11.004;2024-01-15T09:33:21;8.53;;;4.97;;
9729;SDS011;4904;49.152;11.004;2024-01-15T09:35:48;7.47;;;4.57;;
9729;SDS011;4904;49.152;11.004;2024-01-15T09:38:14;10.10;;;5.93;;
9729;SDS011;4904;49.152;11.004;2024-01-15T09:40:43;11.40;;;5.97;;
9729;SDS011;4904;49.152;11.004;2024-01-15T09:43:13;8.33;;;4.70;;
9729;SDS011;4904;49.152;11.004;2024-01-15T09:45:41;7.47;;;4.73;;
9729;SDS011;4904;49.152;11.004;2024-01-15T09:48:09;5.40;;;3.47;;
9729;SDS011;4904;49.152;11.004;2024-01-15T09:50:37;8.57;;;4.00;;
9729;SDS011;4904;49.152;11.004;2024-01-15T09:53:04;14.43;;;3.67;;
9729;SDS011;4904;49.152;11.004;2024-01-15T09:55:32;8.03;;;4.27;;
9729;SDS011;4904;49.152;11.004;2024-01-15T09:57:59;8.47;;;5.47;;
9729;SDS011;4904;49.152;11.004;2024-01-15T10:00:28;6.50;;;4.30;;
9729;SDS011;4904;49.152;11.004;2024-01-15T10:02:56;5.10;;;3.37;;
9729;SDS011;4904;49.152;11.004;2024-01-15T10:05:23;8.20;;;5.20;;
9729;SDS011;4904;49.152;11.004;2024-01-15T10:07:51;10.30;;;6.10;;
9729;SDS011;4904;49.152;11.004;2024-01-15T10:10:21;8.10;;;4.90;;
9729;SDS011;4904;49.152;11.004;2024-01-15T10:12:48;7.40;;;4.37;;
9729;SDS011;4904;49.152;11.004;2024-01-15T10:15:15;8.53;;;4.70;;
9729;SDS011;4904;49.152;11.004;2024-01-15T10:17:42;10.63;;;4.80;;
9729;SDS011;4904;49.152;11.004;2024-01-15T10:20:10;7.87;;;4.73;;
9729;SDS011;4904;49.152;11.004;2024-01-15T10:22:39;9.67;;;4.80;;
9729;SDS011;4904;49.152;11.004;2024-01-15T10:25:11;5.43;;;3.97;;
9729;SDS011;4904;49.152;11.004;2024-01-15T10:27:38;9.70;;;4.90;;
9729;SDS011;4904;49.152;11.004;2024-01-15T10:30:06;4.57;;;3.47;;
9729;SDS011;4904;49.152;11.004;2024-01-15T10:32:34;7.57;;;4.93;;
9729;SDS011;4904;49.152;11.004;2024-01-15T10:35:01;8.20;;;5.23;;
9729;SDS011;4904;49.152;11.004;2024-01-15T10:37:28;7.37;;;4.40;;
9729;SDS011;4904;49.152;11.004;2024-01-15T10:40:01;5.87;;;3.90;;
9729;SDS011;4904;49.152;11.004;2024-01-15T10:42:31;7.47;;;4.50;;
9729;SDS011;4904;49.152;11.004;2024-01-15T10:44:58;8.53;;;5.30;;
9729;SDS011;4904;49.152;11.004;2024-01-15T10:47:26;8.57;;;5.40;;
9729;SDS011;4904;49.152;11.004;2024-01-15T10:49:53;8.00;;;5.23;;
9729;SDS011;4904;49.152;11.004;2024-01-15T10:52:20;6.87;;;4.90;;
9729;SDS011;4904;49.152;11.004;2024-01-15T10:54:48;8.10;;;4.17;;
9729;SDS011;4904;49.152;11.004;2024-01-15T10:57:16;5.00;;;4.03;;
9729;SDS011;4904;49.152;11.004;2024-01-15T10:59:45;6.23;;;4.50;;
9729;SDS011;4904;49.152;11.004;2024-01-15T11:02:13;10.47;;;5.67;;
9729;SDS011;4904;49.152;11.004;2024-01-15T11:04:41;4.27;;;3.03;;
9729;SDS011;4904;49.152;11.004;2024-01-15T11:07:08;7.57;;;4.80;;
9729;SDS011;4904;49.152;11.004;2024-01-15T11:09:36;4.40;;;3.60;;
9729;SDS011;4904;49.152;11.004;2024-01-15T11:12:07;6.97;;;5.03;;
9729;SDS011;4904;49.152;11.004;2024-01-15T11:14:38;8.83;;;5.20;;
9729;SDS011;4904;49.152;11.004;2024-01-15T11:17:10;8.77;;;5.07;;
9729;SDS011;4904;49.152;11.004;2024-01-15T11:19:38;8.57;;;4.70;;
9729;SDS011;4904;49.152;11.004;2024-01-15T11:22:08;4.33;;;3.07;;
9729;SDS011;4904;49.152;11.004;2024-01-15T11:24:37;5.30;;;3.77;;
9729;SDS011;4904;49.152;11.004;2024-01-15T11:27:05;5.23;;;3.50;;
9729;SDS011;4904;49.152;11.004;2024-01-15T11:29:33;6.53;;;4.60;;
9729;SDS011;4904;49.152;11.004;2024-01-15T11:32:01;7.23;;;4.40;;
9729;SDS011;4904;49.152;11.004;2024-01-15T11:37:18;5.90;;;3.90;;
9729;SDS011;4904;49.152;11.004;2024-01-15T11:39:45;5.83;;;3.43;;
9729;SDS011;4904;49.152;11.004;2024-01-15T11:42:13;6.97;;;4.57;;
9729;SDS011;4904;49.152;11.004;2024-01-15T11:44:41;6.40;;;4.47;;
9729;SDS011;4904;49.152;11.004;2024-01-15T11:47:08;6.60;;;3.50;;
9729;SDS011;4904;49.152;11.004;2024-01-15T11:52:31;7.63;;;4.30;;
9729;SDS011;4904;49.152;11.004;2024-01-15T11:55:00;7.57;;;3.90;;
9729;SDS011;4904;49.152;11.004;2024-01-15T11:57:41;6.80;;;4.13;;
9729;SDS011;4904;49.152;11.004;2024-01-15T12:00:10;10.20;;;4.83;;
9729;SDS011;4904;49.152;11.004;2024-01-15T12:02:39;5.67;;;3.77;;
9729;SDS011;4904;49.152;11.004;2024-01-15T12:05:08;7.50;;;5.07;;
9729;SDS011;4904;49.152;11.004;2024-01-15T12:07:37;6.37;;;4.03;;
9729;SDS011;4904;49.152;11.004;2024-01-15T12:10:07;7.80;;;4.53;;
9729;SDS011;4904;49.152;11.004;2024-01-15T12:12:39;7.30;;;4.57;;
9729;SDS011;4904;49.152;11.004;2024-01-15T12:15:19;10.67;;;4.27;;
9729;SDS011;4904;49.152;11.004;2024-01-15T12:17:46;9.17;;;4.57;;
9729;SDS011;4904;49.152;11.004;2024-01-15T12:20:15;9.17;;;5.13;;
9729;SDS011;4904;49.152;11.004;2024-01-15T12:22:43;5.93;;;4.90;;
9729;SDS011;4904;49.152;11.004;2024-01-15T12:25:11;8.30;;;5.10;;
9729;SDS011;4904;49.152;11.004;2024-01-15T12:27:38;8.97;;;4.87;;
9729;SDS011;4904;49.152;11.004;2024-01-15T12:30:05;9.63;;;4.13;;
9729;SDS011;4904;49.152;11.004;2024-01-15T12:32:34;6.67;;;4.47;;
9729;SDS011;4904;49.152;11.004;2024-01-15T12:35:01;7.90;;;5.27;;
9729;SDS011;4904;49.152;11.004;2024-01-15T12:37:30;13.77;;;5.00;;
9729;SDS011;4904;49.152;11.004;2024-01-15T12:39:58;10.67;;;5.57;;
9729;SDS011;4904;49.152;11.004;2024-01-15T12:42:25;8.13;;;5.43;;
9729;SDS011;4904;49.152;11.004;2024-01-15T12:44:54;9.47;;;5.73;;
9729;SDS011;4904;49.152;11.004;2024-01-15T12:47:22;10.37;;;4.87;;
9729;SDS011;4904;49.152;11.004;2024-01-15T12:49:51;14.20;;;6.57;;
9729;SDS011;4904;49.152;11.004;2024-01-15T12:52:19;9.10;;;5.80;;
9729;SDS011;4904;49.152;11.004;2024-01-15T12:54:49;8.60;;;5.07;;
9729;SDS011;4904;49.152;11.004;2024-01-15T12:57:16;11.17;;;7.13;;
9729;SDS011;4904;49.152;11.004;2024-01-15T12:59:43;12.07;;;7.57;;
9729;SDS011;4904;49.152;11.004;2024-01-15T13:02:10;10.63;;;6.93;;
9729;SDS011;4904;49.152;11.004;2024-01-15T13:04:37;13.87;;;7.03;;
9729;SDS011;4904;49.152;11.004;2024-01-15T13:07:04;11.50;;;6.57;;
9729;SDS011;4904;49.152;11.004;2024-01-15T13:09:32;12.63;;;7.53;;
9729;SDS011;4904;49.152;11.004;2024-01-15T13:11:59;12.47;;;7.30;;
9729;SDS011;4904;49.152;11.004;2024-01-15T13:14:26;10.97;;;6.93;;
9729;SDS011;4904;49.152;11.004;2024-01-15T13:16:53;11.67;;;7.57;;
9729;SDS011;4904;49.152;11.004;2024-01-15T13:19:21;13.17;;;8.00;;
9729;SDS011;4904;49.152;11.004;2024-01-15T13:21:48;15.17;;;8.17;;
9729;SDS011;4904;49.152;11.004;2024-01-15T13:24:16;11.80;;;7.23;;
9729;SDS011;4904;49.152;11.004;2024-01-15T13:26:43;10.80;;;7.20;;
9729;SDS011;4904;49.152;11.004;2024-01-15T13:29:11;11.07;;;7.23;;
9729;SDS011;4904;49.152;11.004;2024-01-15T13:31:39;11.93;;;7.60;;
9729;SDS011;4904;49.152;11.004;2024-01-15T13:34:06;12.37;;;7.80;;
9729;SDS011;4904;49.152;11.004;2024-01-15T13:36:34;15.30;;;7.87;;
9729;SDS011;4904;49.152;11.004;2024-01-15T13:39:04;10.97;;;7.13;;
9729;SDS011;4904;49.152;11.004;2024-01-15T13:41:33;14.37;;;7.43;;
9729;SDS011;4904;49.152;11.004;2024-01-15T13:44:00;11.10;;;7.60;;
9729;SDS011;4904;49.152;11.004;2024-01-15T13:46:28;13.40;;;8.30;;
9729;SDS011;4904;49.152;11.004;2024-01-15T13:48:55;12.57;;;8.20;;
9729;SDS011;4904;49.152;11.004;2024-01-15T13:51:22;13.10;;;7.70;;
9729;SDS011;4904;49.152;11.004;2024-01-15T13:53:49;14.03;;;7.60;;
9729;SDS011;4904;49.152;11.004;2024-01-15T13:56:16;11.93;;;7.43;;
9729;SDS011;4904;49.152;11.004;2024-01-15T13:58:43;13.67;;;8.30;;
9729;SDS011;4904;49.152;11.004;2024-01-15T14:01:10;12.20;;;8.53;;
9729;SDS011;4904;49.152;11.004;2024-01-15T14:03:39;13.00;;;7.80;;
9729;SDS011;4904;49.152;11.004;2024-01-15T14:06:06;12.30;;;7.47;;
9729;SDS011;4904;49.152;11.004;2024-01-15T14:08:35;13.23;;;8.13;;
9729;SDS011;4904;49.152;11.004;2024-01-15T14:11:03;12.70;;;7.20;;
9729;SDS011;4904;49.152;11.004;2024-01-15T14:13:31;12.57;;;7.43;;
9729;SDS011;4904;49.152;11.004;2024-01-15T14:15:58;12.53;;;8.00;;
9729;SDS011;4904;49.152;11.004;2024-01-15T14:18:25;14.50;;;7.47;;
9729;SDS011;4904;49.152;11.004;2024-01-15T14:20:53;11.63;;;7.37;;
9729;SDS011;4904;49.152;11.004;2024-01-15T14:23:20;10.30;;;7.23;;
9729;SDS011;4904;49.152;11.004;2024-01-15T14:25:47;11.80;;;7.63;;
9729;SDS011;4904;49.152;11.004;2024-01-15T14:28:14;11.67;;;7.53;;
9729;SDS011;4904;49.152;11.004;2024-01-15T14:30:41;14.77;;;9.50;;
9729;SDS011;4904;49.152;11.004;2024-01-15T14:33:08;10.60;;;5.83;;
9729;SDS011;4904;49.152;11.004;2024-01-15T14:35:35;12.20;;;7.20;;
9729;SDS011;4904;49.152;11.004;2024-01-15T14:38:04;9.87;;;6.73;;
9729;SDS011;4904;49.152;11.004;2024-01-15T14:40:32;11.70;;;8.07;;
9729;SDS011;4904;49.152;11.004;2024-01-15T14:43:00;11.77;;;7.00;;
9729;SDS011;4904;49.152;11.004;2024-01-15T14:45:27;10.23;;;6.47;;
9729;SDS011;4904;49.152;11.004;2024-01-15T14:47:55;12.43;;;7.87;;
9729;SDS011;4904;49.152;11.004;2024-01-15T14:50:23;10.40;;;7.07;;
9729;SDS011;4904;49.152;11.004;2024-01-15T14:52:50;9.30;;;7.20;;
9729;SDS011;4904;49.152;11.004;2024-01-15T14:55:18;10.80;;;7.00;;
9729;SDS011;4904;49.152;11.004;2024-01-15T14:57:45;12.13;;;7.50;;